AFR857 SOCA-LFPG
Flight info
| Callsign | AFR857 |
|---|---|
| Flight time | N/A |
| Altitude | 37000 |
| Route | REKIM1A REKIM DCT MOTSI DCT 15N045W/M082F370 20N043W 23N040W 25N038W/M082F390 30N032W 31N030W 37N020W DCT GUNTI/N0469F400 DCT DEMOS DCT LOTEE DCT GATMO DCT NTS/N0420F300 UN741 KEPER |
| Aircraft | B772/H-SDE2E3FGHIJ5LORVWXY/LB1D1 |
Departure
| Time | 2026-04-11 11:45 |
|---|---|
| Airport | Cayenne – Félix Eboué Airport (SOCA) |
Arrival
| Time | N/A |
|---|---|
| Airport | Charles de Gaulle International Airport (LFPG) |
| Time | Latitude | Longitude | Altitude | Speed | Heading |
|---|---|---|---|---|---|
| 2026-04-11 10:50 | 4.82171 | -52.36302 | 32 ft | 0 kts | 335° |
| 2026-04-11 11:16 | 4.82175 | -52.36304 | 33 ft | 0 kts | 335° |
| 2026-04-11 11:16 | 4.82188 | -52.36310 | 33 ft | 0 kts | 335° |
| 2026-04-11 11:17 | 4.82152 | -52.36366 | 33 ft | 0 kts | 335° |
| 2026-04-11 11:35 | 4.82147 | -52.36364 | 32 ft | 3 kts | 335° |
| 2026-04-11 11:35 | 4.82123 | -52.36353 | 31 ft | 4 kts | 335° |
| 2026-04-11 11:35 | 4.82099 | -52.36343 | 31 ft | 4 kts | 354° |
| 2026-04-11 11:36 | 4.82075 | -52.36348 | 31 ft | 4 kts | 40° |
| 2026-04-11 11:36 | 4.82059 | -52.36367 | 31 ft | 2 kts | 65° |
| 2026-04-11 11:36 | 4.82059 | -52.36368 | 31 ft | 0 kts | 66° |
| 2026-04-11 11:40 | 4.82071 | -52.36342 | 33 ft | 6 kts | 65° |
| 2026-04-11 11:40 | 4.82089 | -52.36294 | 33 ft | 8 kts | 80° |
| 2026-04-11 11:40 | 4.82058 | -52.36252 | 33 ft | 10 kts | 157° |
| 2026-04-11 11:41 | 4.81973 | -52.36225 | 33 ft | 14 kts | 186° |
| 2026-04-11 11:41 | 4.81906 | -52.36326 | 33 ft | 22 kts | 245° |
| 2026-04-11 11:41 | 4.81840 | -52.36468 | 33 ft | 22 kts | 245° |
| 2026-04-11 11:41 | 4.81774 | -52.36610 | 33 ft | 22 kts | 246° |
| 2026-04-11 11:42 | 4.81703 | -52.36765 | 32 ft | 26 kts | 245° |
| 2026-04-11 11:42 | 4.81629 | -52.36926 | 32 ft | 26 kts | 246° |
| 2026-04-11 11:42 | 4.81554 | -52.37090 | 32 ft | 26 kts | 245° |
| 2026-04-11 11:42 | 4.81481 | -52.37249 | 32 ft | 21 kts | 245° |
| 2026-04-11 11:43 | 4.81442 | -52.37347 | 31 ft | 13 kts | 266° |
| 2026-04-11 11:43 | 4.81436 | -52.37408 | 31 ft | 8 kts | 223° |
| 2026-04-11 11:43 | 4.81405 | -52.37387 | 31 ft | 6 kts | 85° |
| 2026-04-11 11:43 | 4.81432 | -52.37351 | 31 ft | 7 kts | 61° |
| 2026-04-11 11:44 | 4.81434 | -52.37346 | 31 ft | 0 kts | 62° |
| 2026-04-11 11:44 | 4.81464 | -52.37284 | 32 ft | 27 kts | 65° |
| 2026-04-11 11:44 | 4.81646 | -52.36887 | 32 ft | 99 kts | 65° |
| 2026-04-11 11:45 | 4.81887 | -52.36366 | 33 ft | 143 kts | 65° |
| 2026-04-11 11:45 | 4.82368 | -52.35322 | 309 ft | 174 kts | 65° |
| 2026-04-11 11:45 | 4.82887 | -52.34205 | 970 ft | 182 kts | 66° |
| 2026-04-11 11:45 | 4.83427 | -52.33047 | 1826 ft | 182 kts | 65° |
| 2026-04-11 11:46 | 4.83988 | -52.31875 | 2314 ft | 193 kts | 65° |
| 2026-04-11 11:46 | 4.84586 | -52.30628 | 2718 ft | 205 kts | 65° |
| 2026-04-11 11:46 | 4.85228 | -52.29288 | 3148 ft | 219 kts | 65° |
| 2026-04-11 11:46 | 4.85919 | -52.27865 | 3560 ft | 231 kts | 64° |
| 2026-04-11 11:47 | 4.86617 | -52.26406 | 4118 ft | 239 kts | 65° |
| 2026-04-11 11:47 | 4.87345 | -52.24875 | 4709 ft | 248 kts | 65° |
| 2026-04-11 11:47 | 4.88088 | -52.23305 | 5479 ft | 249 kts | 65° |
| 2026-04-11 11:47 | 4.88976 | -52.21816 | 6058 ft | 253 kts | 47° |
| 2026-04-11 11:48 | 4.90478 | -52.20862 | 6576 ft | 263 kts | 18° |
| 2026-04-11 11:48 | 4.92308 | -52.20653 | 7114 ft | 267 kts | 2° |
| 2026-04-11 11:48 | 4.94168 | -52.20681 | 7594 ft | 272 kts | 1° |
| 2026-04-11 11:48 | 4.96089 | -52.20749 | 8007 ft | 281 kts | 0° |
| 2026-04-11 11:49 | 4.98072 | -52.20835 | 8437 ft | 288 kts | 0° |
| 2026-04-11 11:49 | 5.00088 | -52.20926 | 8931 ft | 291 kts | 0° |
| 2026-04-11 11:49 | 5.02133 | -52.21019 | 9475 ft | 294 kts | 0° |
| 2026-04-11 11:49 | 5.04166 | -52.21109 | 9979 ft | 297 kts | 0° |
| 2026-04-11 11:50 | 5.06258 | -52.21200 | 10278 ft | 308 kts | 0° |
| 2026-04-11 11:50 | 5.08462 | -52.21292 | 10398 ft | 325 kts | 0° |
| 2026-04-11 11:50 | 5.10791 | -52.21389 | 10533 ft | 342 kts | 0° |
| 2026-04-11 11:50 | 5.13216 | -52.21491 | 10866 ft | 354 kts | 0° |
| 2026-04-11 11:51 | 5.15713 | -52.21596 | 11375 ft | 361 kts | 360° |
| 2026-04-11 11:51 | 5.18206 | -52.21701 | 12048 ft | 365 kts | 0° |
| 2026-04-11 11:51 | 5.20757 | -52.21809 | 12796 ft | 367 kts | 0° |
| 2026-04-11 11:51 | 5.23328 | -52.21917 | 13504 ft | 372 kts | 0° |
| 2026-04-11 11:52 | 5.25928 | -52.22025 | 14156 ft | 377 kts | 0° |
| 2026-04-11 11:52 | 5.28578 | -52.22136 | 14784 ft | 381 kts | 359° |
| 2026-04-11 11:52 | 5.31215 | -52.22246 | 15407 ft | 385 kts | 359° |
| 2026-04-11 11:52 | 5.33911 | -52.22358 | 16021 ft | 390 kts | 359° |
| 2026-04-11 11:53 | 5.36638 | -52.22472 | 16622 ft | 394 kts | 358° |
| 2026-04-11 11:53 | 5.39395 | -52.22587 | 17241 ft | 397 kts | 358° |
| 2026-04-11 11:53 | 5.42185 | -52.22703 | 17811 ft | 403 kts | 358° |
| 2026-04-11 11:53 | 5.44958 | -52.22803 | 18348 ft | 402 kts | 0° |
| 2026-04-11 11:54 | 5.47736 | -52.22335 | 18623 ft | 411 kts | 21° |
| 2026-04-11 11:54 | 5.50216 | -52.20913 | 19008 ft | 410 kts | 34° |
| 2026-04-11 11:54 | 5.52611 | -52.19306 | 19399 ft | 417 kts | 33° |
| 2026-04-11 11:54 | 5.55066 | -52.17722 | 19910 ft | 418 kts | 32° |
| 2026-04-11 11:55 | 5.57502 | -52.16172 | 20448 ft | 420 kts | 31° |
| 2026-04-11 11:55 | 5.59987 | -52.14598 | 20900 ft | 424 kts | 31° |
| 2026-04-11 11:55 | 5.62498 | -52.13009 | 21336 ft | 428 kts | 31° |
| 2026-04-11 11:55 | 5.65028 | -52.11408 | 21799 ft | 430 kts | 31° |
| 2026-04-11 11:56 | 5.67571 | -52.09796 | 22228 ft | 434 kts | 31° |
| 2026-04-11 11:56 | 5.70113 | -52.08185 | 22666 ft | 437 kts | 31° |
| 2026-04-11 11:56 | 5.72692 | -52.06548 | 23101 ft | 440 kts | 31° |
| 2026-04-11 11:56 | 5.75282 | -52.04905 | 23560 ft | 442 kts | 31° |
| 2026-04-11 11:57 | 5.77899 | -52.03243 | 23937 ft | 444 kts | 30° |
| 2026-04-11 11:57 | 5.80510 | -52.01586 | 24323 ft | 445 kts | 30° |
| 2026-04-11 11:57 | 5.83110 | -51.99935 | 24699 ft | 446 kts | 30° |
| 2026-04-11 11:57 | 5.85747 | -51.98260 | 25098 ft | 448 kts | 30° |
| 2026-04-11 11:58 | 5.88392 | -51.96580 | 25469 ft | 449 kts | 30° |
| 2026-04-11 11:58 | 5.91048 | -51.94893 | 25831 ft | 451 kts | 30° |
| 2026-04-11 11:58 | 5.93674 | -51.93227 | 26201 ft | 453 kts | 30° |
| 2026-04-11 11:58 | 5.96346 | -51.91530 | 26568 ft | 455 kts | 30° |
| 2026-04-11 11:59 | 5.99027 | -51.89826 | 26942 ft | 457 kts | 30° |
| 2026-04-11 11:59 | 6.01720 | -51.88114 | 27304 ft | 459 kts | 30° |
| 2026-04-11 11:59 | 6.04432 | -51.86391 | 27660 ft | 461 kts | 30° |
| 2026-04-11 11:59 | 6.07161 | -51.84656 | 28021 ft | 463 kts | 30° |
| 2026-04-11 12:00 | 6.09854 | -51.82944 | 28374 ft | 465 kts | 30° |
| 2026-04-11 12:00 | 6.12594 | -51.81202 | 28729 ft | 467 kts | 30° |
| 2026-04-11 12:00 | 6.15352 | -51.79449 | 29065 ft | 469 kts | 30° |
| 2026-04-11 12:00 | 6.18117 | -51.77691 | 29396 ft | 471 kts | 30° |
| 2026-04-11 12:01 | 6.20896 | -51.75924 | 29728 ft | 473 kts | 30° |
| 2026-04-11 12:01 | 6.23656 | -51.74169 | 30058 ft | 475 kts | 30° |
| 2026-04-11 12:01 | 6.26475 | -51.72375 | 30368 ft | 477 kts | 30° |
| 2026-04-11 12:01 | 6.29287 | -51.70586 | 30631 ft | 479 kts | 30° |
| 2026-04-11 12:02 | 6.32087 | -51.68804 | 30853 ft | 483 kts | 30° |
| 2026-04-11 12:02 | 6.34939 | -51.66990 | 31069 ft | 486 kts | 30° |
| 2026-04-11 12:02 | 6.37822 | -51.65155 | 31300 ft | 489 kts | 30° |
| 2026-04-11 12:02 | 6.40698 | -51.63325 | 31579 ft | 491 kts | 30° |
| 2026-04-11 12:03 | 6.43597 | -51.61479 | 31842 ft | 493 kts | 30° |
| 2026-04-11 12:03 | 6.46471 | -51.59649 | 32048 ft | 495 kts | 30° |
| 2026-04-11 12:03 | 6.49393 | -51.57788 | 32264 ft | 498 kts | 30° |
| 2026-04-11 12:03 | 6.52331 | -51.55917 | 32469 ft | 500 kts | 30° |
| 2026-04-11 12:04 | 6.55299 | -51.54026 | 32695 ft | 502 kts | 30° |
| 2026-04-11 12:04 | 6.58226 | -51.52161 | 32911 ft | 504 kts | 30° |
| 2026-04-11 12:04 | 6.61203 | -51.50264 | 33118 ft | 506 kts | 30° |
| 2026-04-11 12:04 | 6.64184 | -51.48364 | 33316 ft | 508 kts | 30° |
| 2026-04-11 12:05 | 6.67181 | -51.46455 | 33545 ft | 509 kts | 30° |
| 2026-04-11 12:05 | 6.70139 | -51.44568 | 33810 ft | 509 kts | 31° |
| 2026-04-11 12:05 | 6.73130 | -51.42661 | 34086 ft | 508 kts | 31° |
| 2026-04-11 12:05 | 6.76127 | -51.40750 | 34330 ft | 508 kts | 31° |
| 2026-04-11 12:06 | 6.79113 | -51.38846 | 34602 ft | 507 kts | 31° |
| 2026-04-11 12:06 | 6.82085 | -51.36950 | 34887 ft | 506 kts | 31° |
| 2026-04-11 12:06 | 6.88087 | -51.33122 | 35022 ft | 511 kts | 30° |
| 2026-04-11 12:07 | 6.94059 | -51.29310 | 35025 ft | 508 kts | 30° |
| 2026-04-11 12:07 | 7.00000 | -51.25517 | 35037 ft | 504 kts | 30° |
| 2026-04-11 12:08 | 7.05900 | -51.21750 | 35040 ft | 504 kts | 30° |
| 2026-04-11 12:08 | 7.11829 | -51.17963 | 35038 ft | 504 kts | 30° |
| 2026-04-11 12:09 | 7.17728 | -51.14195 | 35041 ft | 504 kts | 30° |
| 2026-04-11 12:09 | 7.23669 | -51.10398 | 35043 ft | 505 kts | 30° |
| 2026-04-11 12:10 | 7.29594 | -51.06610 | 35041 ft | 506 kts | 30° |
| 2026-04-11 12:10 | 7.35562 | -51.02793 | 35042 ft | 507 kts | 30° |
| 2026-04-11 12:11 | 7.41486 | -50.99003 | 35045 ft | 507 kts | 29° |
| 2026-04-11 12:11 | 7.47461 | -50.95179 | 35040 ft | 508 kts | 29° |
| 2026-04-11 12:12 | 7.53438 | -50.91353 | 35043 ft | 508 kts | 29° |
| 2026-04-11 12:12 | 7.59375 | -50.87552 | 35046 ft | 508 kts | 29° |
| 2026-04-11 12:13 | 7.65362 | -50.83716 | 35045 ft | 508 kts | 29° |
| 2026-04-11 12:13 | 7.71299 | -50.79911 | 35046 ft | 507 kts | 29° |
| 2026-04-11 12:14 | 7.77261 | -50.76090 | 35046 ft | 507 kts | 29° |
| 2026-04-11 12:14 | 7.83227 | -50.72264 | 35046 ft | 507 kts | 29° |
| 2026-04-11 12:15 | 7.89151 | -50.68464 | 35046 ft | 507 kts | 29° |
| 2026-04-11 12:15 | 7.95105 | -50.64643 | 35053 ft | 507 kts | 28° |
| 2026-04-11 12:16 | 8.01032 | -50.60839 | 35048 ft | 507 kts | 29° |
| 2026-04-11 12:16 | 8.06983 | -50.57018 | 35048 ft | 506 kts | 29° |
| 2026-04-11 12:17 | 8.12964 | -50.53176 | 35050 ft | 506 kts | 29° |
| 2026-04-11 12:17 | 8.18864 | -50.49385 | 35048 ft | 506 kts | 29° |
| 2026-04-11 12:18 | 8.24822 | -50.45554 | 35050 ft | 506 kts | 28° |
| 2026-04-11 12:19 | 8.33737 | -50.39822 | 35051 ft | 506 kts | 28° |
| 2026-04-11 12:19 | 8.39658 | -50.36012 | 35053 ft | 506 kts | 28° |
| 2026-04-11 12:20 | 8.45600 | -50.32189 | 35051 ft | 506 kts | 28° |
| 2026-04-11 12:20 | 8.51508 | -50.28386 | 35052 ft | 506 kts | 28° |
| 2026-04-11 12:21 | 8.57460 | -50.24552 | 35056 ft | 506 kts | 28° |
| 2026-04-11 12:21 | 8.63373 | -50.20741 | 35051 ft | 506 kts | 28° |
| 2026-04-11 12:22 | 8.69287 | -50.16929 | 35052 ft | 506 kts | 28° |
| 2026-04-11 12:22 | 8.75241 | -50.13090 | 35062 ft | 506 kts | 28° |
| 2026-04-11 12:23 | 8.81159 | -50.09272 | 35057 ft | 506 kts | 28° |
| 2026-04-11 12:23 | 8.87112 | -50.05431 | 35058 ft | 507 kts | 28° |
| 2026-04-11 12:24 | 8.93053 | -50.01595 | 35060 ft | 507 kts | 28° |
| 2026-04-11 12:24 | 8.98967 | -49.97775 | 35060 ft | 507 kts | 28° |
| 2026-04-11 12:25 | 9.04917 | -49.93931 | 35062 ft | 507 kts | 28° |
| 2026-04-11 12:25 | 9.10877 | -49.90079 | 35059 ft | 507 kts | 28° |
| 2026-04-11 12:26 | 9.16805 | -49.86246 | 35058 ft | 507 kts | 28° |
| 2026-04-11 12:26 | 9.22772 | -49.82386 | 35061 ft | 507 kts | 28° |
| 2026-04-11 12:27 | 9.28708 | -49.78544 | 35066 ft | 508 kts | 28° |
| 2026-04-11 12:27 | 9.34678 | -49.74679 | 35062 ft | 508 kts | 28° |
| 2026-04-11 12:28 | 9.40603 | -49.70842 | 35066 ft | 508 kts | 28° |
| 2026-04-11 12:28 | 9.46557 | -49.66984 | 35063 ft | 508 kts | 28° |
| 2026-04-11 12:29 | 9.52544 | -49.63103 | 35201 ft | 511 kts | 28° |
| 2026-04-11 12:29 | 9.55533 | -49.61165 | 35451 ft | 510 kts | 28° |
| 2026-04-11 12:29 | 9.58527 | -49.59223 | 35765 ft | 508 kts | 28° |
| 2026-04-11 12:29 | 9.61468 | -49.57313 | 36071 ft | 506 kts | 28° |
| 2026-04-11 12:30 | 9.64440 | -49.55384 | 36365 ft | 505 kts | 28° |
| 2026-04-11 12:30 | 9.67415 | -49.53454 | 36605 ft | 505 kts | 28° |
| 2026-04-11 12:30 | 9.70350 | -49.51549 | 36820 ft | 505 kts | 28° |
| 2026-04-11 12:30 | 9.73332 | -49.49613 | 36987 ft | 506 kts | 28° |
| 2026-04-11 12:31 | 9.76285 | -49.47696 | 37030 ft | 509 kts | 28° |
| 2026-04-11 12:31 | 9.82266 | -49.43809 | 37063 ft | 510 kts | 28° |
| 2026-04-11 12:32 | 9.88016 | -49.39672 | 37067 ft | 507 kts | 35° |
| 2026-04-11 12:32 | 9.93448 | -49.35084 | 37071 ft | 507 kts | 36° |
| 2026-04-11 12:33 | 9.98838 | -49.30504 | 37078 ft | 506 kts | 36° |
| 2026-04-11 12:33 | 10.03360 | -49.26690 | 37082 ft | 507 kts | 36° |
| 2026-04-11 12:34 | 10.08785 | -49.22136 | 37076 ft | 508 kts | 35° |
| 2026-04-11 12:34 | 10.14272 | -49.17537 | 37077 ft | 509 kts | 35° |
| 2026-04-11 12:35 | 10.19723 | -49.12964 | 37076 ft | 511 kts | 36° |
| 2026-04-11 12:35 | 10.25197 | -49.08367 | 37082 ft | 512 kts | 36° |
| 2026-04-11 12:36 | 10.30680 | -49.03759 | 37079 ft | 513 kts | 35° |
| 2026-04-11 12:36 | 10.36205 | -48.99115 | 37084 ft | 514 kts | 35° |
| 2026-04-11 12:37 | 10.41699 | -48.94494 | 37068 ft | 514 kts | 35° |
| 2026-04-11 12:37 | 10.47195 | -48.89869 | 37086 ft | 514 kts | 35° |
| 2026-04-11 12:38 | 10.52684 | -48.85248 | 37092 ft | 514 kts | 35° |
| 2026-04-11 12:38 | 10.58190 | -48.80609 | 37070 ft | 514 kts | 35° |
| 2026-04-11 12:39 | 10.63716 | -48.75950 | 37072 ft | 514 kts | 35° |
| 2026-04-11 12:39 | 10.69178 | -48.71346 | 37093 ft | 513 kts | 35° |
| 2026-04-11 12:40 | 10.74667 | -48.66717 | 37094 ft | 513 kts | 35° |
| 2026-04-11 12:40 | 10.80177 | -48.62067 | 37081 ft | 513 kts | 35° |
| 2026-04-11 12:41 | 10.85662 | -48.57437 | 37086 ft | 513 kts | 35° |
| 2026-04-11 12:41 | 10.91152 | -48.52799 | 37085 ft | 513 kts | 35° |
| 2026-04-11 12:42 | 10.96624 | -48.48174 | 37089 ft | 513 kts | 35° |
| 2026-04-11 12:42 | 11.02121 | -48.43527 | 37086 ft | 513 kts | 35° |
| 2026-04-11 12:43 | 11.10343 | -48.36570 | 37085 ft | 514 kts | 35° |
| 2026-04-11 12:43 | 11.15850 | -48.31908 | 37087 ft | 514 kts | 35° |
| 2026-04-11 12:44 | 11.21347 | -48.27252 | 37087 ft | 514 kts | 35° |
| 2026-04-11 12:44 | 11.26844 | -48.22593 | 37094 ft | 514 kts | 34° |
| 2026-04-11 12:45 | 11.32349 | -48.17925 | 37081 ft | 515 kts | 35° |
| 2026-04-11 12:45 | 11.37839 | -48.13268 | 37091 ft | 515 kts | 35° |
| 2026-04-11 12:46 | 11.43348 | -48.08592 | 37088 ft | 515 kts | 35° |
| 2026-04-11 12:46 | 11.48853 | -48.03917 | 37089 ft | 515 kts | 35° |
| 2026-04-11 12:47 | 11.54340 | -47.99254 | 37095 ft | 515 kts | 34° |
| 2026-04-11 12:47 | 11.59849 | -47.94571 | 37092 ft | 516 kts | 34° |
| 2026-04-11 12:48 | 11.65352 | -47.89891 | 37095 ft | 516 kts | 34° |
| 2026-04-11 12:48 | 11.70866 | -47.85198 | 37096 ft | 516 kts | 34° |
| 2026-04-11 12:49 | 11.76362 | -47.80518 | 37100 ft | 516 kts | 34° |
| 2026-04-11 12:49 | 11.81865 | -47.75830 | 37091 ft | 516 kts | 34° |
| 2026-04-11 12:50 | 11.87379 | -47.71130 | 37097 ft | 516 kts | 34° |
| 2026-04-11 12:50 | 11.92886 | -47.66432 | 37098 ft | 516 kts | 34° |
| 2026-04-11 12:51 | 11.98381 | -47.61744 | 37108 ft | 516 kts | 34° |
| 2026-04-11 12:51 | 12.03874 | -47.57054 | 37109 ft | 517 kts | 34° |
| 2026-04-11 12:52 | 12.09380 | -47.52350 | 37101 ft | 517 kts | 34° |
| 2026-04-11 12:52 | 12.14891 | -47.47639 | 37102 ft | 518 kts | 34° |
| 2026-04-11 12:53 | 12.20419 | -47.42912 | 37112 ft | 518 kts | 34° |
| 2026-04-11 12:53 | 12.25962 | -47.38169 | 37109 ft | 520 kts | 34° |
| 2026-04-11 12:54 | 12.31538 | -47.33395 | 37098 ft | 520 kts | 34° |
| 2026-04-11 12:54 | 12.37087 | -47.28640 | 37096 ft | 521 kts | 34° |
| 2026-04-11 12:55 | 12.42613 | -47.23903 | 37124 ft | 521 kts | 34° |
| 2026-04-11 12:55 | 12.48156 | -47.19149 | 37097 ft | 521 kts | 34° |
| 2026-04-11 12:56 | 12.53735 | -47.14362 | 37111 ft | 522 kts | 34° |
| 2026-04-11 12:56 | 12.59260 | -47.09617 | 37108 ft | 522 kts | 34° |
| 2026-04-11 12:57 | 12.64854 | -47.04811 | 37101 ft | 522 kts | 34° |
| 2026-04-11 12:57 | 12.70403 | -47.00040 | 37108 ft | 523 kts | 33° |
| 2026-04-11 12:58 | 12.75958 | -46.95262 | 37112 ft | 523 kts | 33° |
| 2026-04-11 12:58 | 12.81575 | -46.90427 | 37113 ft | 524 kts | 33° |
| 2026-04-11 12:59 | 12.87138 | -46.85637 | 37115 ft | 524 kts | 34° |
| 2026-04-11 12:59 | 12.92730 | -46.80818 | 37117 ft | 525 kts | 33° |
| 2026-04-11 13:00 | 12.98309 | -46.76007 | 37115 ft | 525 kts | 33° |
| 2026-04-11 13:00 | 13.03895 | -46.71188 | 37121 ft | 526 kts | 33° |
| 2026-04-11 13:01 | 13.12279 | -46.63948 | 37133 ft | 526 kts | 33° |
| 2026-04-11 13:02 | 13.17874 | -46.59112 | 37116 ft | 525 kts | 33° |
| 2026-04-11 13:02 | 13.23447 | -46.54293 | 37110 ft | 524 kts | 33° |
| 2026-04-11 13:03 | 13.28987 | -46.49500 | 37118 ft | 523 kts | 33° |
| 2026-04-11 13:03 | 13.34579 | -46.44659 | 37117 ft | 523 kts | 33° |
| 2026-04-11 13:04 | 13.40100 | -46.39877 | 37120 ft | 523 kts | 33° |
| 2026-04-11 13:04 | 13.45682 | -46.35039 | 37120 ft | 523 kts | 33° |
| 2026-04-11 13:05 | 13.51230 | -46.30227 | 37116 ft | 523 kts | 33° |
| 2026-04-11 13:05 | 13.56803 | -46.25390 | 37134 ft | 524 kts | 33° |
| 2026-04-11 13:06 | 13.62367 | -46.20558 | 37125 ft | 524 kts | 33° |
| 2026-04-11 13:06 | 13.67937 | -46.15717 | 37123 ft | 524 kts | 33° |
| 2026-04-11 13:07 | 13.73507 | -46.10873 | 37125 ft | 524 kts | 33° |
| 2026-04-11 13:07 | 13.79050 | -46.06050 | 37137 ft | 524 kts | 33° |
| 2026-04-11 13:08 | 13.84622 | -46.01198 | 37123 ft | 524 kts | 33° |
| 2026-04-11 13:08 | 13.90189 | -45.96348 | 37121 ft | 523 kts | 33° |
| 2026-04-11 13:09 | 13.95754 | -45.91496 | 37126 ft | 523 kts | 33° |
| 2026-04-11 13:09 | 14.01274 | -45.86681 | 37134 ft | 523 kts | 33° |
| 2026-04-11 13:10 | 14.06861 | -45.81803 | 37122 ft | 523 kts | 33° |
| 2026-04-11 13:10 | 14.12377 | -45.76985 | 37132 ft | 523 kts | 33° |
| 2026-04-11 13:11 | 14.17922 | -45.72138 | 37133 ft | 523 kts | 33° |
| 2026-04-11 13:11 | 14.23474 | -45.67282 | 37134 ft | 523 kts | 33° |
| 2026-04-11 13:12 | 14.29009 | -45.62438 | 37126 ft | 523 kts | 33° |
| 2026-04-11 13:12 | 14.34532 | -45.57600 | 37129 ft | 523 kts | 33° |
| 2026-04-11 13:13 | 14.40074 | -45.52742 | 37129 ft | 524 kts | 33° |
| 2026-04-11 13:13 | 14.45627 | -45.47873 | 37140 ft | 524 kts | 33° |
| 2026-04-11 13:14 | 14.51174 | -45.43004 | 37131 ft | 524 kts | 33° |
| 2026-04-11 13:14 | 14.56724 | -45.38128 | 37130 ft | 524 kts | 33° |
| 2026-04-11 13:15 | 14.62272 | -45.33252 | 37156 ft | 524 kts | 33° |
| 2026-04-11 13:15 | 14.67818 | -45.28375 | 37136 ft | 523 kts | 33° |
| 2026-04-11 13:16 | 14.73350 | -45.23506 | 37131 ft | 523 kts | 33° |
| 2026-04-11 13:16 | 14.78910 | -45.18608 | 37132 ft | 522 kts | 33° |
| 2026-04-11 13:17 | 14.84406 | -45.13765 | 37154 ft | 522 kts | 33° |
| 2026-04-11 13:17 | 14.89949 | -45.08876 | 37139 ft | 522 kts | 33° |
| 2026-04-11 13:18 | 14.95462 | -45.04015 | 37136 ft | 521 kts | 32° |
| 2026-04-11 13:18 | 15.01358 | -44.99869 | 37136 ft | 507 kts | 20° |
| 2026-04-11 13:19 | 15.07671 | -44.96901 | 37152 ft | 496 kts | 12° |
| 2026-04-11 13:19 | 15.14144 | -44.94434 | 37148 ft | 496 kts | 11° |
| 2026-04-11 13:20 | 15.20633 | -44.91957 | 37141 ft | 497 kts | 12° |
| 2026-04-11 13:20 | 15.27124 | -44.89444 | 37144 ft | 498 kts | 12° |
| 2026-04-11 13:21 | 15.33589 | -44.86922 | 37166 ft | 498 kts | 12° |
| 2026-04-11 13:21 | 15.40083 | -44.84384 | 37147 ft | 499 kts | 12° |
| 2026-04-11 13:22 | 15.46569 | -44.81848 | 37149 ft | 499 kts | 12° |
| 2026-04-11 13:22 | 15.53068 | -44.79307 | 37151 ft | 498 kts | 12° |
| 2026-04-11 13:23 | 15.59565 | -44.76766 | 37149 ft | 498 kts | 12° |
| 2026-04-11 13:23 | 15.65994 | -44.74250 | 37155 ft | 497 kts | 12° |
| 2026-04-11 13:24 | 15.72463 | -44.71716 | 37152 ft | 497 kts | 12° |
| 2026-04-11 13:24 | 15.78940 | -44.69178 | 37156 ft | 496 kts | 12° |
| 2026-04-11 13:25 | 15.85403 | -44.66643 | 37153 ft | 496 kts | 12° |
| 2026-04-11 13:25 | 15.91869 | -44.64106 | 37167 ft | 496 kts | 12° |
| 2026-04-11 13:26 | 15.98326 | -44.61570 | 37152 ft | 496 kts | 12° |
| 2026-04-11 13:26 | 16.04766 | -44.59039 | 37153 ft | 496 kts | 12° |
| 2026-04-11 13:27 | 16.11220 | -44.56501 | 37160 ft | 496 kts | 12° |
| 2026-04-11 13:27 | 16.17632 | -44.53978 | 37179 ft | 496 kts | 12° |
| 2026-04-11 13:28 | 16.24080 | -44.51438 | 37170 ft | 495 kts | 12° |
| 2026-04-11 13:28 | 16.30525 | -44.48898 | 37160 ft | 495 kts | 12° |
| 2026-04-11 13:29 | 16.36984 | -44.46350 | 37160 ft | 494 kts | 12° |
| 2026-04-11 13:29 | 16.43371 | -44.43829 | 37161 ft | 494 kts | 12° |
| 2026-04-11 13:30 | 16.49797 | -44.41292 | 37183 ft | 494 kts | 13° |
| 2026-04-11 13:30 | 16.56226 | -44.38752 | 37164 ft | 493 kts | 13° |
| 2026-04-11 13:31 | 16.62649 | -44.36211 | 37167 ft | 493 kts | 13° |
| 2026-04-11 13:31 | 16.69061 | -44.33673 | 37165 ft | 493 kts | 13° |
| 2026-04-11 13:32 | 16.75457 | -44.31141 | 37178 ft | 493 kts | 14° |
| 2026-04-11 13:32 | 16.81858 | -44.28604 | 37171 ft | 493 kts | 14° |
| 2026-04-11 13:33 | 16.88258 | -44.26065 | 37170 ft | 492 kts | 14° |
| 2026-04-11 13:33 | 16.93609 | -44.23940 | 37172 ft | 492 kts | 14° |
| 2026-04-11 13:34 | 16.99988 | -44.21407 | 37175 ft | 492 kts | 14° |
| 2026-04-11 13:34 | 17.06375 | -44.18870 | 37179 ft | 492 kts | 14° |
| 2026-04-11 13:35 | 17.12767 | -44.16327 | 37173 ft | 491 kts | 14° |
| 2026-04-11 13:35 | 17.19125 | -44.13795 | 37180 ft | 491 kts | 14° |
| 2026-04-11 13:36 | 17.25534 | -44.11242 | 37177 ft | 491 kts | 14° |
| 2026-04-11 13:36 | 17.31919 | -44.08698 | 37185 ft | 491 kts | 15° |
| 2026-04-11 13:37 | 17.38289 | -44.06157 | 37180 ft | 490 kts | 15° |
| 2026-04-11 13:37 | 17.44624 | -44.03627 | 37183 ft | 490 kts | 15° |
| 2026-04-11 13:38 | 17.50997 | -44.01081 | 37188 ft | 490 kts | 15° |
| 2026-04-11 13:38 | 17.57374 | -43.98532 | 37202 ft | 489 kts | 16° |
| 2026-04-11 13:39 | 17.63709 | -43.95997 | 37187 ft | 489 kts | 16° |
| 2026-04-11 13:39 | 17.70085 | -43.93444 | 37184 ft | 489 kts | 16° |
| 2026-04-11 13:40 | 17.76406 | -43.90911 | 37185 ft | 488 kts | 16° |
| 2026-04-11 13:40 | 17.82764 | -43.88361 | 37185 ft | 488 kts | 16° |
| 2026-04-11 13:41 | 17.89083 | -43.85825 | 37195 ft | 488 kts | 16° |
| 2026-04-11 13:41 | 17.95428 | -43.83276 | 37189 ft | 488 kts | 16° |
| 2026-04-11 13:42 | 18.01756 | -43.80733 | 37177 ft | 487 kts | 16° |
| 2026-04-11 13:42 | 18.08105 | -43.78179 | 37197 ft | 488 kts | 16° |
| 2026-04-11 13:43 | 18.14445 | -43.75627 | 37205 ft | 487 kts | 17° |
| 2026-04-11 13:43 | 18.20757 | -43.73084 | 37189 ft | 487 kts | 17° |
| 2026-04-11 13:44 | 18.27081 | -43.70533 | 37186 ft | 487 kts | 17° |
| 2026-04-11 13:44 | 18.33412 | -43.67979 | 37182 ft | 487 kts | 17° |
| 2026-04-11 13:45 | 18.39750 | -43.65419 | 37205 ft | 487 kts | 17° |
| 2026-04-11 13:45 | 18.46068 | -43.62865 | 37216 ft | 487 kts | 17° |
| 2026-04-11 13:46 | 18.52411 | -43.60300 | 37196 ft | 488 kts | 17° |
| 2026-04-11 13:46 | 18.58742 | -43.57737 | 37205 ft | 488 kts | 17° |
| 2026-04-11 13:47 | 18.65090 | -43.55165 | 37204 ft | 488 kts | 17° |
| 2026-04-11 13:47 | 18.71420 | -43.52599 | 37208 ft | 489 kts | 17° |
| 2026-04-11 13:48 | 18.77779 | -43.50019 | 37196 ft | 489 kts | 17° |
| 2026-04-11 13:48 | 18.84088 | -43.47456 | 37200 ft | 489 kts | 17° |
| 2026-04-11 13:49 | 18.90445 | -43.44872 | 37209 ft | 488 kts | 17° |
| 2026-04-11 13:49 | 18.96758 | -43.42304 | 37209 ft | 488 kts | 17° |
| 2026-04-11 13:50 | 19.03106 | -43.39720 | 37215 ft | 488 kts | 17° |
| 2026-04-11 13:50 | 19.09441 | -43.37139 | 37210 ft | 488 kts | 17° |
| 2026-04-11 13:51 | 19.15761 | -43.34561 | 37211 ft | 487 kts | 17° |
| 2026-04-11 13:51 | 19.22079 | -43.31983 | 37209 ft | 486 kts | 17° |
| 2026-04-11 13:52 | 19.28368 | -43.29414 | 37219 ft | 486 kts | 18° |
| 2026-04-11 13:52 | 19.34682 | -43.26833 | 37214 ft | 485 kts | 18° |
| 2026-04-11 13:53 | 19.40973 | -43.24259 | 37212 ft | 484 kts | 18° |
| 2026-04-11 13:53 | 19.47236 | -43.21694 | 37211 ft | 484 kts | 18° |
| 2026-04-11 13:54 | 19.53513 | -43.19122 | 37213 ft | 483 kts | 18° |
| 2026-04-11 13:54 | 19.59778 | -43.16553 | 37217 ft | 482 kts | 18° |
| 2026-04-11 13:55 | 19.66045 | -43.13980 | 37215 ft | 482 kts | 18° |
| 2026-04-11 13:55 | 19.72309 | -43.11406 | 37218 ft | 481 kts | 18° |
| 2026-04-11 13:56 | 19.78507 | -43.08857 | 37217 ft | 481 kts | 18° |
| 2026-04-11 13:56 | 19.84749 | -43.06288 | 37230 ft | 480 kts | 18° |
| 2026-04-11 13:57 | 19.90965 | -43.03727 | 37222 ft | 480 kts | 18° |
| 2026-04-11 13:57 | 19.97153 | -43.01065 | 37221 ft | 481 kts | 24° |
| 2026-04-11 13:58 | 20.02849 | -42.97261 | 37226 ft | 485 kts | 36° |
| 2026-04-11 13:58 | 20.07884 | -42.92485 | 37225 ft | 487 kts | 40° |
| 2026-04-11 13:59 | 20.12834 | -42.87582 | 37234 ft | 487 kts | 40° |
| 2026-04-11 13:59 | 20.17812 | -42.82679 | 37229 ft | 486 kts | 40° |
| 2026-04-11 14:00 | 20.22772 | -42.77830 | 37230 ft | 486 kts | 40° |
| 2026-04-11 14:00 | 20.30271 | -42.70513 | 37231 ft | 485 kts | 40° |
| 2026-04-11 14:01 | 20.35220 | -42.65679 | 37229 ft | 485 kts | 40° |
| 2026-04-11 14:01 | 20.40208 | -42.60799 | 37236 ft | 485 kts | 40° |
| 2026-04-11 14:02 | 20.45161 | -42.55949 | 37233 ft | 485 kts | 40° |
| 2026-04-11 14:02 | 20.50145 | -42.51065 | 37241 ft | 485 kts | 40° |
| 2026-04-11 14:03 | 20.55083 | -42.46221 | 37233 ft | 484 kts | 40° |
| 2026-04-11 14:03 | 20.60047 | -42.41346 | 37233 ft | 484 kts | 40° |
| 2026-04-11 14:04 | 20.64980 | -42.36498 | 37240 ft | 483 kts | 40° |
| 2026-04-11 14:04 | 20.69921 | -42.31638 | 37236 ft | 482 kts | 40° |
| 2026-04-11 14:05 | 20.74858 | -42.26777 | 37237 ft | 481 kts | 40° |
| 2026-04-11 14:05 | 20.79762 | -42.21945 | 37244 ft | 481 kts | 40° |
| 2026-04-11 14:06 | 20.84693 | -42.17080 | 37246 ft | 480 kts | 40° |
| 2026-04-11 14:06 | 20.89603 | -42.12232 | 37237 ft | 479 kts | 40° |
| 2026-04-11 14:07 | 20.94494 | -42.07399 | 37232 ft | 478 kts | 40° |
| 2026-04-11 14:07 | 20.99346 | -42.02599 | 37256 ft | 477 kts | 40° |
| 2026-04-11 14:08 | 21.04221 | -41.97773 | 37243 ft | 477 kts | 40° |
| 2026-04-11 14:08 | 21.09100 | -41.92937 | 37245 ft | 476 kts | 40° |
| 2026-04-11 14:09 | 21.13947 | -41.88130 | 37258 ft | 476 kts | 40° |
| 2026-04-11 14:09 | 21.18787 | -41.83324 | 37271 ft | 476 kts | 40° |
| 2026-04-11 14:10 | 21.23658 | -41.78484 | 37249 ft | 476 kts | 40° |
| 2026-04-11 14:10 | 21.28517 | -41.73650 | 37246 ft | 476 kts | 41° |
| 2026-04-11 14:11 | 21.33340 | -41.68848 | 37246 ft | 475 kts | 41° |
| 2026-04-11 14:11 | 21.38190 | -41.64011 | 37247 ft | 475 kts | 40° |
| 2026-04-11 14:12 | 21.43023 | -41.59189 | 37251 ft | 474 kts | 40° |
| 2026-04-11 14:12 | 21.47862 | -41.54358 | 37257 ft | 474 kts | 41° |
| 2026-04-11 14:13 | 21.52684 | -41.49539 | 37250 ft | 474 kts | 41° |
| 2026-04-11 14:13 | 21.57507 | -41.44714 | 37249 ft | 474 kts | 40° |
| 2026-04-11 14:14 | 21.62320 | -41.39895 | 37254 ft | 475 kts | 40° |
| 2026-04-11 14:14 | 21.67161 | -41.35042 | 37256 ft | 475 kts | 41° |